Time;durP1;ratioP1;P1;durP2;ratioP2;P2;SDS_P1;SDS_P2;PMS_P1;PMS_P2;Temp;Humidity;BMP_temperature;BMP_pressure;BME280_temperature;BME280_humidity;BME280_pressure;Samples;Min_cycle;Max_cycle;Signal;HPM_P1;HPM_P2
2023/07/18 00:02:08;;;;;;;5.40;1.50;;;12.00;99.90;;;;;;4933075;29;20063;-87
2023/07/18 00:04:34;;;;;;;3.05;1.98;;;11.90;99.90;;;;;;4925863;29;20064;-86
2023/07/18 00:06:59;;;;;;;3.10;1.60;;;11.90;99.90;;;;;;4923658;29;20019;-87
2023/07/18 00:09:25;;;;;;;3.90;1.63;;;11.90;99.90;;;;;;4925316;29;21294;-87
2023/07/18 00:11:51;;;;;;;6.18;2.08;;;11.90;99.90;;;;;;4923447;29;20036;-87
2023/07/18 00:14:17;;;;;;;2.90;1.95;;;11.90;99.90;;;;;;4924448;29;20028;-86
2023/07/18 00:16:44;;;;;;;7.72;1.60;;;11.80;99.90;;;;;;4923726;29;20043;-87
2023/07/18 00:19:12;;;;;;;5.97;2.17;;;11.80;99.90;;;;;;4923422;29;20405;-86
2023/07/18 00:21:38;;;;;;;3.17;1.90;;;11.80;99.90;;;;;;4923606;29;20024;-89
2023/07/18 00:24:04;;;;;;;4.97;2.08;;;11.80;99.90;;;;;;4922437;29;20024;-86
2023/07/18 00:26:30;;;;;;;2.33;1.92;;;11.70;99.90;;;;;;4922135;29;20054;-87
2023/07/18 00:28:56;;;;;;;5.25;1.90;;;11.70;99.90;;;;;;4922152;29;20537;-87
2023/07/18 00:31:22;;;;;;;2.92;1.90;;;11.70;99.90;;;;;;4922353;29;20024;-87
2023/07/18 00:33:47;;;;;;;4.97;1.92;;;11.70;99.90;;;;;;4922531;29;20036;-86
2023/07/18 00:36:13;;;;;;;4.07;1.80;;;11.70;99.90;;;;;;4922460;29;20024;-86
2023/07/18 00:38:39;;;;;;;5.05;2.10;;;11.70;99.90;;;;;;4922948;29;20415;-86
2023/07/18 00:41:06;;;;;;;4.65;1.92;;;11.70;99.90;;;;;;4923316;29;20040;-88
2023/07/18 00:43:34;;;;;;;4.07;2.65;;;11.70;99.90;;;;;;4923006;29;20067;-86
2023/07/18 00:46:01;;;;;;;3.80;1.80;;;11.70;99.90;;;;;;4922615;29;20031;-87
2023/07/18 00:48:32;;;;;;;3.03;1.83;;;11.60;99.90;;;;;;4924198;29;20107;-86
2023/07/18 00:51:00;;;;;;;8.02;1.80;;;11.60;99.90;;;;;;4925830;29;20063;-86
2023/07/18 00:53:25;;;;;;;6.93;1.63;;;11.60;99.90;;;;;;4927483;29;20031;-85
2023/07/18 00:55:53;;;;;;;3.63;1.67;;;11.50;99.90;;;;;;4924437;29;20419;-87
2023/07/18 00:58:19;;;;;;;7.97;1.58;;;11.40;99.90;;;;;;4925302;29;20554;-87
2023/07/18 01:00:44;;;;;;;4.80;1.77;;;11.30;99.90;;;;;;4925972;29;20115;-88
2023/07/18 01:03:10;;;;;;;5.75;1.88;;;11.20;99.90;;;;;;4926533;29;20106;-88
2023/07/18 01:05:37;;;;;;;4.10;1.60;;;11.20;99.90;;;;;;4925536;29;20143;-88
2023/07/18 01:08:03;;;;;;;4.75;1.70;;;11.10;99.90;;;;;;4925316;29;20092;-88
2023/07/18 01:10:29;;;;;;;3.28;1.90;;;11.10;99.90;;;;;;4925564;29;20024;-88
2023/07/18 01:12:57;;;;;;;4.05;1.45;;;11.10;99.90;;;;;;4925699;29;20034;-88
2023/07/18 01:15:23;;;;;;;4.18;2.05;;;11.10;99.90;;;;;;4926849;29;20030;-88
2023/07/18 01:17:50;;;;;;;4.50;1.88;;;11.10;99.90;;;;;;4926277;29;20028;-85
2023/07/18 01:20:27;;;;;;;5.80;1.60;;;11.00;99.90;;;;;;4925738;29;20032;-87
2023/07/18 01:22:55;;;;;;;6.35;2.10;;;11.00;99.90;;;;;;4926103;29;20028;-88
2023/07/18 01:25:21;;;;;;;4.82;1.88;;;11.00;99.90;;;;;;4925761;29;20135;-88
2023/07/18 01:27:49;;;;;;;5.63;1.75;;;11.00;99.90;;;;;;4926795;29;20069;-86
2023/07/18 01:30:17;;;;;;;2.58;1.88;;;11.00;99.90;;;;;;4925282;29;20083;-85
2023/07/18 01:32:44;;;;;;;9.32;2.10;;;11.00;99.90;;;;;;4925645;29;20024;-88
2023/07/18 01:35:10;;;;;;;5.05;1.88;;;11.00;99.90;;;;;;4925614;29;20091;-86
2023/07/18 01:37:37;;;;;;;3.55;1.73;;;11.00;99.90;;;;;;4925544;29;20034;-88
2023/07/18 01:40:12;;;;;;;2.92;1.95;;;11.00;99.90;;;;;;4925019;29;20402;-87
2023/07/18 01:42:38;;;;;;;3.28;1.75;;;10.90;99.90;;;;;;4925121;29;20019;-88
2023/07/18 01:45:05;;;;;;;3.28;1.67;;;10.90;99.90;;;;;;4925353;29;20264;-87
2023/07/18 01:47:33;;;;;;;5.30;2.20;;;10.90;99.90;;;;;;4924871;29;20087;-87
2023/07/18 01:50:01;;;;;;;3.53;1.55;;;10.80;99.90;;;;;;4924335;29;20082;-88
2023/07/18 01:52:27;;;;;;;4.43;1.90;;;10.70;99.90;;;;;;4924221;29;20044;-87
2023/07/18 01:54:59;;;;;;;4.45;1.83;;;10.70;99.90;;;;;;4924314;29;20382;-87
2023/07/18 01:57:28;;;;;;;3.60;2.10;;;10.70;99.90;;;;;;4923704;29;20020;-87
2023/07/18 01:59:55;;;;;;;6.32;2.10;;;10.70;99.90;;;;;;4924359;29;20047;-85
2023/07/18 02:02:21;;;;;;;4.63;1.92;;;10.60;99.90;;;;;;4924782;29;20478;-88
2023/07/18 02:04:48;;;;;;;2.83;2.08;;;10.60;99.90;;;;;;4924909;29;20160;-87
2023/07/18 02:07:13;;;;;;;3.90;1.88;;;10.70;99.90;;;;;;4925351;29;20114;-87
2023/07/18 02:09:39;;;;;;;4.85;1.77;;;10.70;99.90;;;;;;4929327;29;20055;-87
2023/07/18 02:12:05;;;;;;;2.20;1.73;;;10.60;99.90;;;;;;4938124;29;20501;-87
2023/07/18 02:14:31;;;;;;;3.42;2.08;;;10.50;99.90;;;;;;4939876;29;20106;-88
2023/07/18 02:16:57;;;;;;;2.67;1.98;;;10.60;99.90;;;;;;4937740;29;20028;-87
2023/07/18 02:19:23;;;;;;;3.67;1.98;;;10.50;99.90;;;;;;4936465;29;20171;-88
2023/07/18 02:21:49;;;;;;;4.45;2.00;;;10.50;99.90;;;;;;4936154;29;20101;-87
2023/07/18 02:24:14;;;;;;;6.68;2.15;;;10.40;99.90;;;;;;4936922;29;20095;-88
2023/07/18 02:26:40;;;;;;;4.57;2.05;;;10.40;99.90;;;;;;4937259;29;20032;-88
2023/07/18 02:29:06;;;;;;;4.53;2.25;;;10.40;99.90;;;;;;4937297;29;20114;-87
2023/07/18 02:31:32;;;;;;;4.43;2.13;;;10.40;99.90;;;;;;4937463;29;20437;-86
2023/07/18 02:33:58;;;;;;;3.42;2.13;;;10.40;99.90;;;;;;4937013;29;20059;-86
2023/07/18 02:36:24;;;;;;;3.50;2.00;;;10.40;99.90;;;;;;4937315;29;20144;-87
2023/07/18 02:38:50;;;;;;;3.47;2.10;;;10.40;99.90;;;;;;4937181;29;20130;-88
2023/07/18 02:41:15;;;;;;;7.55;2.40;;;10.30;99.90;;;;;;4934748;29;20035;-88
2023/07/18 02:43:41;;;;;;;4.97;2.20;;;10.30;99.90;;;;;;4935048;29;20127;-89
2023/07/18 02:46:06;;;;;;;5.25;2.15;;;10.30;99.90;;;;;;4935502;29;20570;-88
2023/07/18 02:48:32;;;;;;;4.90;2.95;;;10.30;99.90;;;;;;4935179;29;20031;-87
2023/07/18 02:50:58;;;;;;;2.67;1.95;;;10.30;99.90;;;;;;4935093;29;20649;-87
2023/07/18 02:53:23;;;;;;;6.22;2.90;;;10.30;99.90;;;;;;4935523;29;20032;-87
2023/07/18 02:55:51;;;;;;;3.78;2.10;;;10.20;99.90;;;;;;4924707;29;20131;-88
2023/07/18 02:58:17;;;;;;;6.45;2.10;;;10.20;99.90;;;;;;4899630;29;20511;-88
2023/07/18 03:00:43;;;;;;;2.85;2.10;;;10.10;99.90;;;;;;4915405;29;20032;-87
2023/07/18 03:03:08;;;;;;;3.85;1.92;;;10.10;99.90;;;;;;4915569;29;20024;-87
2023/07/18 03:05:34;;;;;;;3.63;2.10;;;10.10;99.90;;;;;;4915812;29;20029;-87
2023/07/18 03:08:00;;;;;;;2.80;2.08;;;10.10;99.90;;;;;;4915928;29;20027;-87
2023/07/18 03:10:25;;;;;;;21.08;3.40;;;10.00;99.90;;;;;;4915647;29;20060;-88
2023/07/18 03:12:51;;;;;;;3.65;2.13;;;10.00;99.90;;;;;;4915067;29;20076;-88
2023/07/18 03:15:16;;;;;;;4.50;2.03;;;10.00;99.90;;;;;;4915566;29;20028;-87
2023/07/18 03:17:42;;;;;;;5.93;1.77;;;9.90;99.90;;;;;;4915862;29;20471;-87
2023/07/18 03:20:19;;;;;;;4.70;2.05;;;9.90;99.90;;;;;;4916087;29;20043;-87
2023/07/18 03:22:49;;;;;;;4.43;1.88;;;9.80;99.90;;;;;;4915646;29;20020;-88
2023/07/18 03:25:17;;;;;;;2.85;1.90;;;9.80;99.90;;;;;;4915624;29;20024;-88
2023/07/18 03:27:43;;;;;;;4.00;1.92;;;9.80;99.90;;;;;;4915150;29;20083;-88
2023/07/18 03:30:12;;;;;;;4.07;1.90;;;9.70;99.90;;;;;;4915504;29;20099;-87
2023/07/18 03:32:39;;;;;;;4.00;2.15;;;9.70;99.90;;;;;;4916721;29;20032;-87
2023/07/18 03:35:06;;;;;;;6.18;2.67;;;9.70;99.90;;;;;;4916327;29;20040;-87
2023/07/18 03:37:32;;;;;;;2.67;2.10;;;9.70;99.90;;;;;;4915946;29;20474;-87
2023/07/18 03:39:58;;;;;;;6.35;2.30;;;9.80;99.90;;;;;;4915807;29;20040;-87
2023/07/18 03:42:24;;;;;;;3.65;2.47;;;9.70;99.90;;;;;;4915745;29;20071;-87
2023/07/18 03:44:49;;;;;;;8.75;2.13;;;9.70;99.90;;;;;;4915678;29;20039;-87
2023/07/18 03:47:15;;;;;;;7.20;2.20;;;9.70;99.90;;;;;;4915921;29;20020;-87
2023/07/18 03:49:41;;;;;;;2.53;1.90;;;9.70;99.90;;;;;;4916083;29;20032;-87
2023/07/18 03:52:07;;;;;;;3.60;2.00;;;9.70;99.90;;;;;;4915201;29;20039;-87
2023/07/18 03:54:33;;;;;;;7.78;2.10;;;9.70;99.90;;;;;;4914934;29;20055;-87
2023/07/18 03:57:00;;;;;;;6.80;2.45;;;9.70;99.90;;;;;;4914357;29;20024;-87
2023/07/18 03:59:25;;;;;;;2.92;2.10;;;9.70;99.90;;;;;;4914543;29;20040;-88
2023/07/18 04:01:52;;;;;;;4.25;2.17;;;9.70;99.90;;;;;;4914497;29;20047;-87
2023/07/18 04:04:17;;;;;;;4.40;1.98;;;9.70;99.90;;;;;;4914893;29;20067;-87
2023/07/18 04:06:43;;;;;;;2.92;1.83;;;9.70;99.90;;;;;;4915146;29;20055;-87
2023/07/18 04:09:10;;;;;;;4.47;2.22;;;9.70;99.90;;;;;;4914814;29;20115;-87
2023/07/18 04:11:35;;;;;;;10.00;2.38;;;9.70;99.90;;;;;;4915520;29;20024;-88
2023/07/18 04:14:01;;;;;;;4.10;2.58;;;9.70;99.90;;;;;;4915025;29;20134;-88
2023/07/18 04:16:27;;;;;;;4.82;2.50;;;9.70;99.90;;;;;;4916306;29;20028;-87
2023/07/18 04:18:52;;;;;;;5.15;2.80;;;9.70;99.90;;;;;;4915296;29;20044;-87
2023/07/18 04:21:18;;;;;;;3.42;1.95;;;9.80;99.90;;;;;;4915013;29;20079;-88
2023/07/18 04:23:44;;;;;;;5.90;2.38;;;9.80;99.90;;;;;;4917991;29;20074;-88
2023/07/18 04:26:09;;;;;;;3.75;2.40;;;9.90;99.90;;;;;;4920852;29;20021;-87
2023/07/18 04:28:39;;;;;;;5.38;2.17;;;9.90;99.90;;;;;;4921037;29;20028;-88
2023/07/18 04:31:05;;;;;;;7.10;2.67;;;9.90;99.90;;;;;;4921130;29;20043;-87
2023/07/18 04:33:36;;;;;;;3.50;2.33;;;9.90;99.90;;;;;;4921037;29;20028;-88
2023/07/18 04:36:06;;;;;;;3.45;1.95;;;10.00;99.90;;;;;;4920899;29;20063;-88
2023/07/18 04:38:33;;;;;;;3.45;2.05;;;9.90;99.90;;;;;;4921380;29;20036;-87
2023/07/18 04:40:59;;;;;;;3.92;2.10;;;9.90;99.90;;;;;;4920976;29;20079;-87
2023/07/18 04:43:24;;;;;;;3.80;2.20;;;9.80;99.90;;;;;;4921060;29;20494;-87
2023/07/18 04:45:50;;;;;;;3.85;2.40;;;9.80;99.90;;;;;;4920878;29;20030;-87
2023/07/18 04:48:18;;;;;;;6.35;2.10;;;9.80;99.90;;;;;;4920824;29;20068;-87
2023/07/18 04:51:04;;;;;;;7.90;2.45;;;9.80;99.90;;;;;;4921117;29;20123;-88
2023/07/18 04:53:31;;;;;;;6.40;2.20;;;9.80;99.90;;;;;;4920557;29;20060;-88
2023/07/18 04:55:57;;;;;;;7.22;2.22;;;9.80;99.90;;;;;;4920622;29;20494;-87
2023/07/18 04:58:25;;;;;;;5.93;2.67;;;9.80;99.90;;;;;;4905437;29;20056;-88
2023/07/18 05:00:51;;;;;;;11.55;3.00;;;9.80;99.90;;;;;;4920825;29;20407;-88
2023/07/18 05:03:17;;;;;;;5.18;2.97;;;9.80;99.90;;;;;;4922128;29;20032;-88
2023/07/18 05:05:43;;;;;;;4.93;2.70;;;9.80;99.90;;;;;;4920386;29;20039;-87
2023/07/18 05:08:09;;;;;;;4.35;3.00;;;9.80;99.90;;;;;;4924734;29;20474;-87
2023/07/18 05:10:34;;;;;;;6.18;3.28;;;9.80;99.90;;;;;;4939542;29;20046;-87
2023/07/18 05:13:00;;;;;;;10.43;3.47;;;9.90;99.90;;;;;;4939878;29;20031;-87
2023/07/18 05:15:26;;;;;;;9.43;3.88;;;9.90;99.90;;;;;;4941280;29;20035;-87
2023/07/18 05:17:51;;;;;;;4.53;3.03;;;10.00;99.90;;;;;;4944901;29;20434;-87
2023/07/18 05:20:17;;;;;;;7.18;3.55;;;10.00;99.90;;;;;;4944787;29;20032;-87
2023/07/18 05:22:44;;;;;;;4.80;3.47;;;10.00;99.90;;;;;;4942618;29;20023;-87
2023/07/18 05:25:12;;;;;;;9.55;3.47;;;10.10;99.90;;;;;;4941617;29;20090;-86
2023/07/18 05:27:39;;;;;;;11.90;4.53;;;10.10;99.90;;;;;;4940649;29;20178;-87
2023/07/18 05:30:10;;;;;;;9.10;3.53;;;10.20;99.90;;;;;;4940268;29;20024;-88
2023/07/18 05:32:35;;;;;;;;;;;10.20;99.90;;;;;;4940648;29;20031;-86
2023/07/18 05:35:13;;;;;;;6.88;3.45;;;10.20;99.90;;;;;;4937055;29;20391;-88
2023/07/18 05:37:40;;;;;;;8.23;3.42;;;10.30;99.90;;;;;;4936689;29;20063;-87
2023/07/18 05:40:09;;;;;;;7.07;3.60;;;10.40;99.90;;;;;;4936218;29;20039;-88
2023/07/18 05:42:35;;;;;;;13.65;3.65;;;10.40;99.90;;;;;;4936197;29;20038;-87
2023/07/18 05:45:01;;;;;;;10.68;4.13;;;10.50;99.90;;;;;;4936004;29;20028;-88
2023/07/18 05:47:27;;;;;;;8.80;4.45;;;10.50;99.90;;;;;;4935802;29;20095;-87
2023/07/18 05:49:52;;;;;;;9.38;4.28;;;10.60;99.90;;;;;;4936264;29;20126;-86
2023/07/18 05:52:23;;;;;;;9.88;3.85;;;10.60;99.90;;;;;;4935943;29;20127;-88
2023/07/18 05:54:49;;;;;;;10.15;4.00;;;10.70;99.90;;;;;;4936180;29;20119;-88
2023/07/18 05:57:15;;;;;;;7.13;4.00;;;10.80;99.90;;;;;;4936208;29;20035;-86
2023/07/18 05:59:41;;;;;;;8.52;4.50;;;10.90;99.90;;;;;;4937326;29;20094;-88
2023/07/18 06:02:10;;;;;;;10.00;4.45;;;11.00;99.90;;;;;;4936538;29;20425;-87
2023/07/18 06:04:45;;;;;;;9.73;3.75;;;11.00;99.90;;;;;;4936372;29;20035;-88
2023/07/18 06:07:13;;;;;;;8.00;4.20;;;11.10;99.90;;;;;;4935983;29;20071;-88
2023/07/18 06:09:39;;;;;;;11.55;3.80;;;11.20;99.90;;;;;;4935588;29;20466;-88
2023/07/18 06:12:06;;;;;;;13.95;4.20;;;11.20;99.90;;;;;;4935558;29;20032;-88
2023/07/18 06:14:32;;;;;;;10.15;3.50;;;11.20;99.90;;;;;;4931661;29;20026;-86
2023/07/18 06:16:58;;;;;;;8.35;3.60;;;11.30;99.90;;;;;;4912402;29;20032;-87
2023/07/18 06:19:24;;;;;;;6.63;3.53;;;11.40;99.90;;;;;;4916745;29;20043;-87
2023/07/18 06:21:49;;;;;;;11.80;4.00;;;11.40;99.90;;;;;;4915838;29;20075;-88
2023/07/18 06:24:16;;;;;;;7.47;3.70;;;11.30;99.90;;;;;;4914221;29;20058;-87
2023/07/18 06:26:48;;;;;;;8.20;4.25;;;11.30;99.90;;;;;;4914339;29;20032;-87
2023/07/18 06:29:17;;;;;;;9.07;3.15;;;11.40;99.90;;;;;;4913083;29;20032;-86
2023/07/18 06:31:44;;;;;;;8.32;3.70;;;11.40;99.90;;;;;;4896639;29;20088;-87
2023/07/18 06:34:10;;;;;;;9.02;3.70;;;11.40;99.90;;;;;;4896100;29;20037;-87
2023/07/18 06:36:35;;;;;;;8.70;4.55;;;11.50;99.90;;;;;;4901481;29;20115;-87
2023/07/18 06:39:01;;;;;;;8.68;4.07;;;11.50;99.90;;;;;;4910930;29;20040;-87
2023/07/18 06:41:27;;;;;;;7.53;3.83;;;11.50;99.90;;;;;;4911520;29;20043;-88
2023/07/18 06:43:54;;;;;;;11.10;3.92;;;11.60;99.90;;;;;;4914844;29;20066;-88
2023/07/18 06:46:21;;;;;;;7.60;3.53;;;11.60;99.90;;;;;;4915185;29;20048;-88
2023/07/18 06:48:47;;;;;;;5.75;3.42;;;11.70;99.90;;;;;;4917264;29;20025;-88
2023/07/18 06:51:14;;;;;;;7.93;3.58;;;11.70;99.90;;;;;;4916086;29;20553;-87
2023/07/18 06:53:40;;;;;;;13.27;3.70;;;11.70;99.90;;;;;;4915664;29;20392;-87
2023/07/18 06:56:05;;;;;;;9.20;3.63;;;11.80;99.90;;;;;;4915791;29;20043;-88
2023/07/18 06:58:31;;;;;;;5.25;2.70;;;11.80;99.90;;;;;;4916238;29;20398;-87
2023/07/18 07:00:57;;;;;;;10.10;3.47;;;11.80;99.90;;;;;;4915907;29;20119;-88
2023/07/18 07:03:23;;;;;;;5.65;3.63;;;11.90;99.90;;;;;;4916335;29;20028;-88
2023/07/18 07:05:49;;;;;;;6.53;3.15;;;11.90;99.90;;;;;;4915661;29;20390;-88
2023/07/18 07:08:18;;;;;;;7.13;3.53;;;12.00;99.90;;;;;;4915866;29;20036;-88
2023/07/18 07:10:45;;;;;;;11.07;3.47;;;12.00;99.90;;;;;;4915514;29;20024;-88
2023/07/18 07:13:11;;;;;;;6.68;3.92;;;12.10;99.90;;;;;;4915653;29;20131;-87
2023/07/18 07:15:37;;;;;;;8.20;3.40;;;12.10;99.90;;;;;;4915511;29;20083;-88
2023/07/18 07:18:04;;;;;;;4.38;3.22;;;12.10;99.90;;;;;;4914974;29;20079;-88
2023/07/18 07:20:33;;;;;;;7.15;3.20;;;12.20;99.90;;;;;;4915136;29;20368;-88
2023/07/18 07:23:00;;;;;;;10.93;3.50;;;12.20;99.90;;;;;;4915421;29;20031;-88
2023/07/18 07:25:31;;;;;;;9.20;3.38;;;12.20;99.90;;;;;;4914832;29;20028;-88
2023/07/18 07:27:57;;;;;;;5.95;3.30;;;12.30;99.90;;;;;;4913591;29;20060;-88
2023/07/18 07:30:23;;;;;;;5.13;2.97;;;12.30;99.90;;;;;;4915114;29;20060;-87
2023/07/18 07:32:53;;;;;;;7.88;3.10;;;12.40;99.90;;;;;;4915588;29;20036;-87
2023/07/18 07:35:20;;;;;;;11.55;3.03;;;12.40;99.90;;;;;;4905263;29;20044;-88
2023/07/18 07:37:47;;;;;;;5.63;2.90;;;12.50;99.90;;;;;;4897646;29;20097;-88
2023/07/18 07:40:13;;;;;;;9.80;3.35;;;12.50;99.90;;;;;;4898810;29;20040;-88
2023/07/18 07:42:39;;;;;;;9.30;3.13;;;12.60;99.90;;;;;;4915531;29;20024;-88
2023/07/18 07:45:07;;;;;;;5.40;2.67;;;12.70;99.90;;;;;;4914838;29;20032;-88
2023/07/18 07:47:33;;;;;;;7.28;3.00;;;12.80;99.90;;;;;;4915237;29;20043;-88
2023/07/18 07:50:00;;;;;;;6.05;2.90;;;13.00;99.90;;;;;;4913958;29;20039;-88
2023/07/18 07:52:26;;;;;;;4.70;2.67;;;13.10;99.90;;;;;;4913428;29;20029;-88
2023/07/18 07:54:51;;;;;;;5.78;2.75;;;13.20;99.90;;;;;;4901002;29;20052;-88
2023/07/18 07:57:17;;;;;;;7.22;3.00;;;13.40;99.90;;;;;;4914300;29;20036;-88
2023/07/18 07:59:43;;;;;;;7.72;2.65;;;13.50;99.90;;;;;;4911883;29;20443;-88
2023/07/18 08:02:09;;;;;;;6.15;2.65;;;13.60;99.90;;;;;;4914802;29;20147;-88
2023/07/18 08:04:36;;;;;;;4.22;2.80;;;13.70;99.90;;;;;;4914832;29;20036;-88
2023/07/18 08:07:03;;;;;;;4.22;2.50;;;13.80;99.90;;;;;;4914935;29;20423;-88
2023/07/18 08:09:29;;;;;;;8.00;2.75;;;13.90;99.90;;;;;;4916098;29;20087;-88
2023/07/18 08:11:54;;;;;;;5.75;2.17;;;14.00;99.90;;;;;;4914454;29;20040;-88
2023/07/18 08:14:21;;;;;;;8.50;3.00;;;14.10;99.90;;;;;;4914734;29;20028;-88
2023/07/18 08:16:48;;;;;;;5.20;2.70;;;14.10;99.90;;;;;;4914713;29;20028;-88
2023/07/18 08:19:17;;;;;;;10.45;3.83;;;14.20;99.90;;;;;;4914884;29;20040;-89
2023/07/18 08:21:42;;;;;;;7.53;3.00;;;14.20;99.90;;;;;;4915034;29;20021;-88
2023/07/18 08:24:08;;;;;;;8.95;2.63;;;14.30;99.90;;;;;;4915724;29;20367;-88
2023/07/18 08:26:34;;;;;;;6.03;2.60;;;14.30;99.90;;;;;;4918868;29;20467;-89
2023/07/18 08:29:00;;;;;;;9.85;3.20;;;14.40;99.90;;;;;;4918457;29;20064;-89
2023/07/18 08:31:25;;;;;;;7.63;2.55;;;14.50;99.90;;;;;;4918269;29;20399;-89
2023/07/18 08:33:51;;;;;;;7.82;2.35;;;14.50;99.90;;;;;;4917314;29;20509;-87
2023/07/18 08:36:17;;;;;;;12.95;2.60;;;14.60;99.90;;;;;;4916856;29;20505;-88
2023/07/18 08:38:49;;;;;;;6.07;2.10;;;14.60;99.90;;;;;;4917063;29;20047;-89
2023/07/18 08:41:17;;;;;;;10.25;2.30;;;14.70;99.90;;;;;;4915409;29;20043;-88
2023/07/18 08:43:44;;;;;;;11.65;3.13;;;14.80;99.90;;;;;;4916028;29;20048;-88
2023/07/18 08:46:13;;;;;;;6.78;2.20;;;14.90;99.90;;;;;;4914716;29;20043;-89
2023/07/18 08:48:43;;;;;;;12.70;2.30;;;15.00;99.90;;;;;;4914726;29;20020;-87
2023/07/18 08:56:03;;;;;;;5.95;2.30;;;15.20;99.90;;;;;;4941534;28;20058;-76
2023/07/18 08:58:29;;;;;;;6.20;2.33;;;15.30;99.90;;;;;;4953040;29;20124;-76
2023/07/18 09:00:54;;;;;;;9.70;2.63;;;15.40;99.90;;;;;;4940610;29;20035;-76
2023/07/18 09:03:20;;;;;;;11.32;2.28;;;15.50;99.90;;;;;;4940337;28;20024;-76
2023/07/18 09:05:46;;;;;;;13.40;2.35;;;15.60;99.90;;;;;;4938649;29;20110;-77
2023/07/18 09:08:11;;;;;;;5.75;2.00;;;15.70;99.90;;;;;;4929494;29;20024;-75
2023/07/18 09:10:37;;;;;;;8.38;1.80;;;15.80;99.90;;;;;;4943844;28;20095;-75
2023/07/18 09:13:05;;;;;;;8.02;2.00;;;15.90;99.90;;;;;;4949004;29;20035;-76
2023/07/18 09:15:36;;;;;;;11.95;2.38;;;16.00;99.90;;;;;;4945801;29;20064;-76
2023/07/18 09:18:07;;;;;;;8.32;1.90;;;16.10;99.90;;;;;;4948593;29;20049;-75
2023/07/18 09:20:33;;;;;;;3.75;1.30;;;16.20;99.90;;;;;;4946851;29;20047;-76
2023/07/18 09:23:00;;;;;;;8.52;1.70;;;16.20;99.90;;;;;;4931815;29;20053;-75
2023/07/18 09:25:26;;;;;;;5.85;1.30;;;16.20;99.90;;;;;;4945457;29;20023;-75
2023/07/18 09:27:53;;;;;;;11.23;1.80;;;16.30;99.90;;;;;;4948475;28;20028;-76
2023/07/18 09:30:35;;;;;;;7.28;1.30;;;16.30;99.90;;;;;;4945393;28;20050;-77
2023/07/18 09:33:05;;;;;;;7.68;1.58;;;16.40;99.90;;;;;;4930401;29;20032;-76
2023/07/18 09:35:35;;;;;;;5.82;1.67;;;16.40;99.90;;;;;;4946866;29;20152;-75
2023/07/18 09:38:02;;;;;;;6.50;1.00;;;16.50;99.90;;;;;;4950178;29;20107;-75
2023/07/18 09:40:28;;;;;;;5.88;1.10;;;16.50;99.90;;;;;;4945957;29;20060;-76
2023/07/18 09:42:55;;;;;;;5.20;1.20;;;16.60;99.90;;;;;;4948510;29;20024;-75
2023/07/18 09:45:22;;;;;;;4.13;1.10;;;16.70;99.90;;;;;;4945992;29;20031;-76
2023/07/18 09:47:47;;;;;;;6.25;1.00;;;16.70;99.90;;;;;;4947344;29;20028;-74
2023/07/18 09:50:14;;;;;;;5.30;1.02;;;16.80;99.90;;;;;;4946585;29;20030;-75
2023/07/18 09:52:57;;;;;;;6.13;1.00;;;16.90;99.90;;;;;;4935022;29;20063;-74
2023/07/18 09:55:26;;;;;;;4.43;1.23;;;16.90;99.90;;;;;;4946098;29;20051;-74
2023/07/18 09:57:55;;;;;;;6.50;0.88;;;17.00;99.90;;;;;;4948162;29;20038;-75
2023/07/18 10:00:23;;;;;;;5.35;0.98;;;17.00;99.90;;;;;;4929377;29;20479;-74
2023/07/18 10:02:52;;;;;;;5.60;0.77;;;17.10;99.90;;;;;;4950543;29;20098;-75
2023/07/18 10:05:19;;;;;;;4.10;0.88;;;17.00;99.90;;;;;;4956327;29;20038;-73
2023/07/18 10:07:46;;;;;;;5.50;1.30;;;17.00;99.90;;;;;;4956020;29;20051;-75
2023/07/18 10:10:12;;;;;;;2.40;0.93;;;17.00;99.90;;;;;;4939376;29;20464;-75
2023/07/18 10:13:00;;;;;;;7.40;1.35;;;17.00;99.90;;;;;;4937463;29;20035;-74
2023/07/18 10:15:27;;;;;;;3.28;0.82;;;17.00;99.90;;;;;;4944647;29;20460;-75
2023/07/18 10:17:53;;;;;;;5.30;0.90;;;17.00;99.90;;;;;;4951065;29;20032;-74
2023/07/18 10:20:24;;;;;;;1.88;0.50;;;17.10;99.90;;;;;;4940316;28;20035;-74
2023/07/18 10:22:49;;;;;;;;;;;17.10;99.90;;;;;;4945731;29;20036;-75
2023/07/18 10:25:18;;;;;;;4.50;0.60;;;17.10;99.90;;;;;;4946461;29;19921;-74
2023/07/18 10:27:45;;;;;;;3.42;0.68;;;17.10;99.90;;;;;;4946444;29;20027;-74
2023/07/18 10:30:17;;;;;;;4.07;0.82;;;17.10;99.90;;;;;;4929122;29;20034;-74
2023/07/18 10:32:54;;;;;;;7.63;1.00;;;17.00;99.90;;;;;;4949510;29;20103;-75
2023/07/18 10:35:24;;;;;;;3.50;1.00;;;17.00;99.90;;;;;;4948110;29;20039;-74
2023/07/18 10:38:03;;;;;;;4.63;1.00;;;17.00;99.90;;;;;;4933600;29;20078;-74
2023/07/18 10:40:43;;;;;;;10.90;2.45;;;17.00;99.90;;;;;;4945046;29;20071;-74
2023/07/18 10:43:20;;;;;;;5.97;1.10;;;17.00;99.90;;;;;;4956242;28;20313;-75
2023/07/18 10:45:46;;;;;;;4.82;1.27;;;17.00;99.90;;;;;;4945567;29;20379;-74
2023/07/18 10:48:14;;;;;;;1.40;0.98;;;17.10;99.90;;;;;;4947358;29;20134;-76
2023/07/18 10:50:41;;;;;;;4.38;1.17;;;17.10;99.90;;;;;;4943602;29;20031;-75
2023/07/18 10:53:17;;;;;;;8.80;1.35;;;17.20;99.90;;;;;;4946355;29;20544;-74
2023/07/18 10:55:45;;;;;;;6.35;1.10;;;17.20;99.90;;;;;;4952741;28;20134;-75
2023/07/18 10:58:20;;;;;;;7.90;1.70;;;17.30;99.90;;;;;;4961808;28;20075;-75
2023/07/18 11:00:48;;;;;;;3.45;0.90;;;17.30;99.90;;;;;;4967808;28;20054;-75
2023/07/18 11:03:37;;;;;;;3.28;1.15;;;17.20;99.90;;;;;;4965397;28;20033;-75
2023/07/18 11:06:06;;;;;;;6.55;1.75;;;17.10;99.90;;;;;;4972337;28;20023;-76
2023/07/18 11:08:32;;;;;;;5.53;1.67;;;17.10;99.90;;;;;;4967083;28;20109;-75
2023/07/18 11:11:00;;;;;;;5.20;1.30;;;17.00;99.90;;;;;;4965871;28;20055;-74
2023/07/18 11:13:32;;;;;;;4.20;1.55;;;17.00;99.90;;;;;;4969482;28;20035;-74
2023/07/18 11:16:01;;;;;;;6.75;1.70;;;16.90;99.90;;;;;;4965390;28;20068;-75
2023/07/18 11:18:35;;;;;;;4.47;1.70;;;16.90;99.90;;;;;;4965136;28;20031;-76
2023/07/18 11:21:05;;;;;;;5.93;1.55;;;16.90;99.90;;;;;;4963858;28;20034;-75
2023/07/18 11:23:32;;;;;;;5.20;1.30;;;16.70;99.90;;;;;;4967198;28;20038;-73
2023/07/18 11:25:57;;;;;;;6.30;1.30;;;16.50;99.90;;;;;;4974119;28;20537;-74
2023/07/18 11:28:33;;;;;;;10.07;1.58;;;16.40;99.90;;;;;;4959465;28;20034;-74
2023/07/18 11:30:59;;;;;;;6.47;1.30;;;16.30;99.90;;;;;;4954449;28;20024;-74
2023/07/18 11:33:53;;;;;;;6.03;1.45;;;16.20;99.90;;;;;;4943726;28;20106;-76
2023/07/18 11:36:21;;;;;;;4.63;1.42;;;16.20;99.90;;;;;;4974705;28;20038;-74
2023/07/18 11:38:49;;;;;;;5.25;1.58;;;16.10;99.90;;;;;;4973770;28;20029;-74
2023/07/18 11:41:38;;;;;;;6.13;1.40;;;16.00;99.90;;;;;;4973875;28;20060;-74
2023/07/18 11:44:05;;;;;;;3.38;1.30;;;16.00;99.90;;;;;;4973789;28;20019;-73
2023/07/18 11:46:43;;;;;;;5.20;1.55;;;15.90;99.90;;;;;;4973775;28;20491;-72
2023/07/18 11:49:12;;;;;;;8.25;2.88;;;15.90;99.90;;;;;;4973542;28;20031;-72
2023/07/18 11:51:40;;;;;;;10.13;1.63;;;15.80;99.90;;;;;;4966265;28;20058;-72
2023/07/18 11:54:06;;;;;;;6.03;1.52;;;15.80;99.90;;;;;;4972398;28;20023;-72
2023/07/18 11:56:34;;;;;;;6.28;2.28;;;15.70;99.90;;;;;;4970520;28;20053;-74
2023/07/18 11:59:00;;;;;;;4.45;1.83;;;15.60;99.90;;;;;;4964353;28;20089;-73
2023/07/18 12:01:26;;;;;;;5.22;1.70;;;15.60;99.90;;;;;;4960959;28;20042;-74
2023/07/18 12:03:53;;;;;;;9.88;1.75;;;15.50;99.90;;;;;;4961995;28;20030;-74
2023/07/18 12:06:19;;;;;;;6.25;1.63;;;15.40;99.90;;;;;;4964229;28;20463;-74
2023/07/18 12:08:45;;;;;;;9.25;1.83;;;15.30;99.90;;;;;;4962222;28;20487;-74
2023/07/18 12:11:11;;;;;;;6.78;1.60;;;15.20;99.90;;;;;;4963730;28;20057;-74
2023/07/18 12:13:38;;;;;;;3.42;1.40;;;15.10;99.90;;;;;;4946632;28;20122;-73
2023/07/18 12:16:05;;;;;;;7.18;2.00;;;15.00;99.90;;;;;;4961898;28;20039;-73
2023/07/18 12:18:31;;;;;;;5.10;1.55;;;14.90;99.90;;;;;;4960756;28;20027;-73
2023/07/18 12:20:56;;;;;;;4.22;1.98;;;14.90;99.90;;;;;;4958562;28;20035;-74
2023/07/18 12:23:23;;;;;;;4.40;1.98;;;14.90;99.90;;;;;;4936995;29;20023;-74
2023/07/18 12:25:49;;;;;;;4.38;1.70;;;14.90;99.90;;;;;;4954565;28;20034;-74
2023/07/18 12:28:14;;;;;;;4.97;2.30;;;14.90;99.90;;;;;;4973332;28;20027;-74
2023/07/18 12:30:40;;;;;;;5.18;1.48;;;14.90;99.90;;;;;;4973436;28;20071;-74
2023/07/18 12:33:06;;;;;;;5.90;1.90;;;14.90;99.90;;;;;;4973119;28;20037;-74
2023/07/18 12:35:31;;;;;;;5.75;1.90;;;14.90;99.90;;;;;;4973078;28;20109;-73
2023/07/18 12:37:57;;;;;;;5.78;1.67;;;15.00;99.90;;;;;;4973232;28;20381;-73
2023/07/18 12:40:23;;;;;;;2.53;1.65;;;15.00;99.90;;;;;;4973290;28;20039;-74
2023/07/18 12:42:49;;;;;;;4.32;1.50;;;15.00;99.90;;;;;;4973742;28;20517;-76
2023/07/18 12:45:16;;;;;;;5.15;1.75;;;14.90;99.90;;;;;;4976537;28;20033;-73
2023/07/18 12:47:42;;;;;;;6.78;2.15;;;15.00;99.90;;;;;;4976577;28;20090;-72
2023/07/18 12:50:08;;;;;;;5.40;1.70;;;15.00;99.90;;;;;;4976755;28;20115;-76
2023/07/18 12:52:34;;;;;;;5.05;1.70;;;15.00;99.90;;;;;;4976978;28;20097;-73
2023/07/18 12:55:00;;;;;;;5.13;1.80;;;15.00;99.90;;;;;;4959456;28;20122;-73